sensor_id;sensor_type;location;lat;lon;timestamp;P1;durP1;ratioP1;P2;durP2;ratioP2
43580;SDS011;29175;51.030;4.606;2022-12-05T00:04:01;87.00;;;31.00;;
43580;SDS011;29175;51.030;4.606;2022-12-05T00:06:29;102.70;;;32.63;;
43580;SDS011;29175;51.030;4.606;2022-12-05T00:08:57;105.72;;;33.00;;
43580;SDS011;29175;51.030;4.606;2022-12-05T00:11:24;94.40;;;30.17;;
43580;SDS011;29175;51.030;4.606;2022-12-05T00:13:52;90.20;;;30.65;;
43580;SDS011;29175;51.030;4.606;2022-12-05T00:16:20;90.10;;;31.70;;
43580;SDS011;29175;51.030;4.606;2022-12-05T00:18:50;98.57;;;32.17;;
43580;SDS011;29175;51.030;4.606;2022-12-05T00:21:18;91.53;;;31.60;;
43580;SDS011;29175;51.030;4.606;2022-12-05T00:23:45;88.22;;;30.58;;
43580;SDS011;29175;51.030;4.606;2022-12-05T00:26:11;90.88;;;30.42;;
43580;SDS011;29175;51.030;4.606;2022-12-05T00:28:38;85.85;;;29.77;;
43580;SDS011;29175;51.030;4.606;2022-12-05T00:31:08;97.43;;;31.02;;
43580;SDS011;29175;51.030;4.606;2022-12-05T00:33:37;94.90;;;30.02;;
43580;SDS011;29175;51.030;4.606;2022-12-05T00:36:04;94.00;;;31.15;;
43580;SDS011;29175;51.030;4.606;2022-12-05T00:38:31;88.00;;;30.52;;
43580;SDS011;29175;51.030;4.606;2022-12-05T00:41:02;93.55;;;30.98;;
43580;SDS011;29175;51.030;4.606;2022-12-05T00:43:32;87.70;;;29.30;;
43580;SDS011;29175;51.030;4.606;2022-12-05T00:46:01;87.30;;;31.25;;
43580;SDS011;29175;51.030;4.606;2022-12-05T00:48:28;99.40;;;30.55;;
43580;SDS011;29175;51.030;4.606;2022-12-05T00:53:30;85.20;;;29.70;;
43580;SDS011;29175;51.030;4.606;2022-12-05T00:56:07;92.88;;;30.10;;
43580;SDS011;29175;51.030;4.606;2022-12-05T00:58:36;92.45;;;30.98;;
43580;SDS011;29175;51.030;4.606;2022-12-05T01:01:10;91.72;;;29.02;;
43580;SDS011;29175;51.030;4.606;2022-12-05T01:03:43;92.97;;;30.45;;
43580;SDS011;29175;51.030;4.606;2022-12-05T01:06:11;89.57;;;29.90;;
43580;SDS011;29175;51.030;4.606;2022-12-05T01:08:38;95.75;;;31.77;;
43580;SDS011;29175;51.030;4.606;2022-12-05T01:11:04;85.38;;;28.13;;
43580;SDS011;29175;51.030;4.606;2022-12-05T01:13:32;91.32;;;29.63;;
43580;SDS011;29175;51.030;4.606;2022-12-05T01:15:57;86.65;;;29.38;;
43580;SDS011;29175;51.030;4.606;2022-12-05T01:18:24;78.25;;;29.10;;
43580;SDS011;29175;51.030;4.606;2022-12-05T01:20:50;98.20;;;31.23;;
43580;SDS011;29175;51.030;4.606;2022-12-05T01:23:17;86.35;;;28.15;;
43580;SDS011;29175;51.030;4.606;2022-12-05T01:25:44;92.25;;;29.10;;
43580;SDS011;29175;51.030;4.606;2022-12-05T01:28:12;90.50;;;29.40;;
43580;SDS011;29175;51.030;4.606;2022-12-05T01:30:39;90.60;;;30.80;;
43580;SDS011;29175;51.030;4.606;2022-12-05T01:33:06;87.93;;;29.85;;
43580;SDS011;29175;51.030;4.606;2022-12-05T01:35:34;87.13;;;29.35;;
43580;SDS011;29175;51.030;4.606;2022-12-05T01:38:02;75.35;;;29.40;;
43580;SDS011;29175;51.030;4.606;2022-12-05T01:40:28;96.50;;;30.50;;
43580;SDS011;29175;51.030;4.606;2022-12-05T01:42:54;92.22;;;29.88;;
43580;SDS011;29175;51.030;4.606;2022-12-05T01:45:34;98.70;;;30.63;;
43580;SDS011;29175;51.030;4.606;2022-12-05T01:48:02;93.32;;;30.75;;
43580;SDS011;29175;51.030;4.606;2022-12-05T01:50:33;90.13;;;30.63;;
43580;SDS011;29175;51.030;4.606;2022-12-05T01:52:59;86.25;;;28.92;;
43580;SDS011;29175;51.030;4.606;2022-12-05T01:55:26;87.25;;;28.52;;
43580;SDS011;29175;51.030;4.606;2022-12-05T01:57:52;85.63;;;30.17;;
43580;SDS011;29175;51.030;4.606;2022-12-05T02:00:18;95.47;;;30.10;;
43580;SDS011;29175;51.030;4.606;2022-12-05T02:02:47;91.93;;;29.80;;
43580;SDS011;29175;51.030;4.606;2022-12-05T02:05:21;88.57;;;30.02;;
43580;SDS011;29175;51.030;4.606;2022-12-05T02:07:49;96.85;;;30.30;;
43580;SDS011;29175;51.030;4.606;2022-12-05T02:10:16;89.78;;;29.35;;
43580;SDS011;29175;51.030;4.606;2022-12-05T02:12:42;92.38;;;30.20;;
43580;SDS011;29175;51.030;4.606;2022-12-05T02:15:14;82.80;;;28.70;;
43580;SDS011;29175;51.030;4.606;2022-12-05T02:23:42;95.32;;;30.63;;
43580;SDS011;29175;51.030;4.606;2022-12-05T02:26:24;99.45;;;31.08;;
43580;SDS011;29175;51.030;4.606;2022-12-05T02:29:23;95.63;;;31.80;;
43580;SDS011;29175;51.030;4.606;2022-12-05T02:32:28;85.68;;;29.60;;
43580;SDS011;29175;51.030;4.606;2022-12-05T02:35:04;90.35;;;29.55;;
43580;SDS011;29175;51.030;4.606;2022-12-05T02:37:45;104.05;;;31.15;;
43580;SDS011;29175;51.030;4.606;2022-12-05T02:41:01;90.25;;;29.40;;
43580;SDS011;29175;51.030;4.606;2022-12-05T02:43:13;88.53;;;31.17;;
43580;SDS011;29175;51.030;4.606;2022-12-05T02:45:47;91.00;;;28.73;;
43580;SDS011;29175;51.030;4.606;2022-12-05T02:48:18;90.93;;;29.05;;
43580;SDS011;29175;51.030;4.606;2022-12-05T02:50:45;91.30;;;31.00;;
43580;SDS011;29175;51.030;4.606;2022-12-05T02:53:13;87.30;;;30.08;;
43580;SDS011;29175;51.030;4.606;2022-12-05T02:55:40;83.40;;;30.20;;
43580;SDS011;29175;51.030;4.606;2022-12-05T02:58:13;88.80;;;28.70;;
43580;SDS011;29175;51.030;4.606;2022-12-05T03:00:43;84.88;;;29.52;;
43580;SDS011;29175;51.030;4.606;2022-12-05T03:03:13;88.88;;;29.63;;
43580;SDS011;29175;51.030;4.606;2022-12-05T03:08:16;90.63;;;29.25;;
43580;SDS011;29175;51.030;4.606;2022-12-05T03:10:46;100.03;;;31.25;;
43580;SDS011;29175;51.030;4.606;2022-12-05T03:13:15;87.78;;;29.75;;
43580;SDS011;29175;51.030;4.606;2022-12-05T03:15:48;92.10;;;28.67;;
43580;SDS011;29175;51.030;4.606;2022-12-05T03:18:25;89.78;;;30.52;;
43580;SDS011;29175;51.030;4.606;2022-12-05T03:21:06;87.65;;;28.70;;
43580;SDS011;29175;51.030;4.606;2022-12-05T03:23:57;93.63;;;29.73;;
43580;SDS011;29175;51.030;4.606;2022-12-05T03:26:45;87.25;;;29.67;;
43580;SDS011;29175;51.030;4.606;2022-12-05T03:35:00;76.43;;;27.73;;
43580;SDS011;29175;51.030;4.606;2022-12-05T03:37:53;83.80;;;29.48;;
43580;SDS011;29175;51.030;4.606;2022-12-05T03:40:31;80.95;;;27.30;;
43580;SDS011;29175;51.030;4.606;2022-12-05T03:43:07;81.78;;;29.08;;
43580;SDS011;29175;51.030;4.606;2022-12-05T03:45:42;86.97;;;29.23;;
43580;SDS011;29175;51.030;4.606;2022-12-05T03:48:27;76.10;;;27.05;;
43580;SDS011;29175;51.030;4.606;2022-12-05T03:51:00;86.13;;;28.98;;
43580;SDS011;29175;51.030;4.606;2022-12-05T03:54:04;84.43;;;32.13;;
43580;SDS011;29175;51.030;4.606;2022-12-05T03:56:29;89.50;;;30.98;;
43580;SDS011;29175;51.030;4.606;2022-12-05T03:59:04;88.95;;;30.00;;
43580;SDS011;29175;51.030;4.606;2022-12-05T04:01:40;90.78;;;29.25;;
43580;SDS011;29175;51.030;4.606;2022-12-05T04:04:13;85.80;;;29.88;;
43580;SDS011;29175;51.030;4.606;2022-12-05T04:06:44;84.93;;;29.65;;
43580;SDS011;29175;51.030;4.606;2022-12-05T04:09:15;94.72;;;30.38;;
43580;SDS011;29175;51.030;4.606;2022-12-05T04:11:47;92.13;;;30.83;;
43580;SDS011;29175;51.030;4.606;2022-12-05T04:14:24;97.45;;;31.60;;
43580;SDS011;29175;51.030;4.606;2022-12-05T04:16:57;87.63;;;30.40;;
43580;SDS011;29175;51.030;4.606;2022-12-05T04:22:57;92.32;;;29.45;;
43580;SDS011;29175;51.030;4.606;2022-12-05T04:25:23;97.75;;;30.88;;
43580;SDS011;29175;51.030;4.606;2022-12-05T04:31:06;89.30;;;30.55;;
43580;SDS011;29175;51.030;4.606;2022-12-05T04:34:01;100.88;;;30.20;;
43580;SDS011;29175;51.030;4.606;2022-12-05T04:36:34;101.03;;;32.63;;
43580;SDS011;29175;51.030;4.606;2022-12-05T04:39:33;85.13;;;29.88;;
43580;SDS011;29175;51.030;4.606;2022-12-05T04:42:24;83.95;;;29.45;;
43580;SDS011;29175;51.030;4.606;2022-12-05T04:44:53;88.80;;;29.77;;
43580;SDS011;29175;51.030;4.606;2022-12-05T04:47:26;89.00;;;30.05;;
43580;SDS011;29175;51.030;4.606;2022-12-05T04:49:55;91.00;;;31.63;;
43580;SDS011;29175;51.030;4.606;2022-12-05T04:52:23;102.63;;;31.33;;
43580;SDS011;29175;51.030;4.606;2022-12-05T04:54:52;86.78;;;30.30;;
43580;SDS011;29175;51.030;4.606;2022-12-05T04:57:28;85.63;;;31.15;;
43580;SDS011;29175;51.030;4.606;2022-12-05T04:59:58;88.90;;;30.75;;
43580;SDS011;29175;51.030;4.606;2022-12-05T05:02:26;87.78;;;29.42;;
43580;SDS011;29175;51.030;4.606;2022-12-05T05:04:58;107.90;;;32.90;;
43580;SDS011;29175;51.030;4.606;2022-12-05T05:07:28;93.38;;;31.50;;
43580;SDS011;29175;51.030;4.606;2022-12-05T05:09:54;103.82;;;31.13;;
43580;SDS011;29175;51.030;4.606;2022-12-05T05:12:20;88.80;;;31.70;;
43580;SDS011;29175;51.030;4.606;2022-12-05T05:14:46;85.85;;;28.92;;
43580;SDS011;29175;51.030;4.606;2022-12-05T05:17:13;91.97;;;31.70;;
43580;SDS011;29175;51.030;4.606;2022-12-05T05:19:38;81.70;;;27.83;;
43580;SDS011;29175;51.030;4.606;2022-12-05T05:22:04;96.22;;;30.80;;
43580;SDS011;29175;51.030;4.606;2022-12-05T05:24:30;78.55;;;29.58;;
43580;SDS011;29175;51.030;4.606;2022-12-05T05:26:55;81.53;;;27.35;;
43580;SDS011;29175;51.030;4.606;2022-12-05T05:29:21;86.13;;;30.58;;
43580;SDS011;29175;51.030;4.606;2022-12-05T05:31:47;85.97;;;30.00;;
43580;SDS011;29175;51.030;4.606;2022-12-05T05:34:12;86.88;;;28.35;;
43580;SDS011;29175;51.030;4.606;2022-12-05T05:36:40;84.70;;;29.15;;
43580;SDS011;29175;51.030;4.606;2022-12-05T05:39:09;89.97;;;30.05;;
43580;SDS011;29175;51.030;4.606;2022-12-05T05:41:36;78.03;;;27.90;;
43580;SDS011;29175;51.030;4.606;2022-12-05T05:44:02;83.63;;;29.77;;
43580;SDS011;29175;51.030;4.606;2022-12-05T05:46:29;97.75;;;31.90;;
43580;SDS011;29175;51.030;4.606;2022-12-05T05:48:56;91.25;;;29.85;;
43580;SDS011;29175;51.030;4.606;2022-12-05T05:51:23;94.03;;;30.75;;
43580;SDS011;29175;51.030;4.606;2022-12-05T05:53:53;83.13;;;28.80;;
43580;SDS011;29175;51.030;4.606;2022-12-05T05:56:20;82.22;;;27.92;;
43580;SDS011;29175;51.030;4.606;2022-12-05T05:58:46;87.05;;;27.23;;
43580;SDS011;29175;51.030;4.606;2022-12-05T06:01:14;90.45;;;30.08;;
43580;SDS011;29175;51.030;4.606;2022-12-05T06:03:43;85.22;;;29.80;;
43580;SDS011;29175;51.030;4.606;2022-12-05T06:06:10;83.03;;;30.20;;
43580;SDS011;29175;51.030;4.606;2022-12-05T06:08:38;91.18;;;29.52;;
43580;SDS011;29175;51.030;4.606;2022-12-05T06:11:19;77.38;;;27.77;;
43580;SDS011;29175;51.030;4.606;2022-12-05T06:13:47;80.32;;;26.33;;
43580;SDS011;29175;51.030;4.606;2022-12-05T06:16:14;96.45;;;29.50;;
43580;SDS011;29175;51.030;4.606;2022-12-05T06:18:41;71.15;;;27.67;;
43580;SDS011;29175;51.030;4.606;2022-12-05T06:21:07;92.20;;;29.13;;
43580;SDS011;29175;51.030;4.606;2022-12-05T06:23:33;87.70;;;29.42;;
43580;SDS011;29175;51.030;4.606;2022-12-05T06:26:00;84.55;;;30.23;;
43580;SDS011;29175;51.030;4.606;2022-12-05T06:28:27;81.30;;;29.15;;
43580;SDS011;29175;51.030;4.606;2022-12-05T06:30:53;81.88;;;29.13;;
43580;SDS011;29175;51.030;4.606;2022-12-05T06:33:19;82.15;;;27.05;;
43580;SDS011;29175;51.030;4.606;2022-12-05T06:35:45;90.30;;;31.13;;
43580;SDS011;29175;51.030;4.606;2022-12-05T06:38:11;83.05;;;29.52;;
43580;SDS011;29175;51.030;4.606;2022-12-05T06:40:40;90.95;;;31.42;;
43580;SDS011;29175;51.030;4.606;2022-12-05T06:43:07;88.68;;;28.75;;
43580;SDS011;29175;51.030;4.606;2022-12-05T06:45:33;86.95;;;29.65;;
43580;SDS011;29175;51.030;4.606;2022-12-05T06:48:01;89.95;;;31.30;;
43580;SDS011;29175;51.030;4.606;2022-12-05T06:50:26;90.65;;;30.45;;
43580;SDS011;29175;51.030;4.606;2022-12-05T06:52:52;79.75;;;29.83;;
43580;SDS011;29175;51.030;4.606;2022-12-05T06:55:18;91.40;;;30.38;;
43580;SDS011;29175;51.030;4.606;2022-12-05T06:57:43;92.88;;;30.63;;
43580;SDS011;29175;51.030;4.606;2022-12-05T07:00:09;90.03;;;29.95;;
43580;SDS011;29175;51.030;4.606;2022-12-05T07:02:55;86.63;;;30.23;;
43580;SDS011;29175;51.030;4.606;2022-12-05T07:05:20;83.85;;;29.23;;
43580;SDS011;29175;51.030;4.606;2022-12-05T07:07:46;84.78;;;28.08;;
43580;SDS011;29175;51.030;4.606;2022-12-05T07:10:12;96.90;;;30.58;;
43580;SDS011;29175;51.030;4.606;2022-12-05T07:12:37;84.15;;;28.38;;
43580;SDS011;29175;51.030;4.606;2022-12-05T07:15:03;95.53;;;31.13;;
43580;SDS011;29175;51.030;4.606;2022-12-05T07:17:29;85.32;;;28.95;;
43580;SDS011;29175;51.030;4.606;2022-12-05T07:20:03;78.53;;;28.33;;
43580;SDS011;29175;51.030;4.606;2022-12-05T07:22:30;88.20;;;31.20;;
43580;SDS011;29175;51.030;4.606;2022-12-05T07:24:59;93.00;;;30.35;;
43580;SDS011;29175;51.030;4.606;2022-12-05T07:27:24;92.07;;;30.38;;
43580;SDS011;29175;51.030;4.606;2022-12-05T07:29:50;80.25;;;28.67;;
43580;SDS011;29175;51.030;4.606;2022-12-05T07:32:16;77.35;;;28.98;;
43580;SDS011;29175;51.030;4.606;2022-12-05T07:34:41;85.85;;;30.08;;
43580;SDS011;29175;51.030;4.606;2022-12-05T07:37:07;85.35;;;28.33;;
43580;SDS011;29175;51.030;4.606;2022-12-05T07:39:33;81.72;;;30.42;;
43580;SDS011;29175;51.030;4.606;2022-12-05T07:41:59;78.47;;;27.75;;
43580;SDS011;29175;51.030;4.606;2022-12-05T07:44:24;85.38;;;29.30;;
43580;SDS011;29175;51.030;4.606;2022-12-05T07:46:50;80.10;;;29.50;;
43580;SDS011;29175;51.030;4.606;2022-12-05T07:49:16;83.78;;;28.95;;
43580;SDS011;29175;51.030;4.606;2022-12-05T07:51:42;91.95;;;30.10;;
43580;SDS011;29175;51.030;4.606;2022-12-05T07:54:07;85.03;;;28.40;;
43580;SDS011;29175;51.030;4.606;2022-12-05T07:56:34;78.32;;;26.90;;
43580;SDS011;29175;51.030;4.606;2022-12-05T07:59:00;71.00;;;26.73;;
43580;SDS011;29175;51.030;4.606;2022-12-05T08:01:28;80.57;;;27.77;;
43580;SDS011;29175;51.030;4.606;2022-12-05T08:03:55;88.30;;;29.75;;
43580;SDS011;29175;51.030;4.606;2022-12-05T08:06:23;82.75;;;28.55;;
43580;SDS011;29175;51.030;4.606;2022-12-05T08:08:50;77.03;;;27.52;;
43580;SDS011;29175;51.030;4.606;2022-12-05T08:11:21;79.53;;;26.52;;
43580;SDS011;29175;51.030;4.606;2022-12-05T08:13:49;80.15;;;28.50;;
43580;SDS011;29175;51.030;4.606;2022-12-05T08:16:16;80.50;;;29.30;;
43580;SDS011;29175;51.030;4.606;2022-12-05T08:18:43;79.28;;;27.83;;
43580;SDS011;29175;51.030;4.606;2022-12-05T08:21:14;68.25;;;26.35;;
43580;SDS011;29175;51.030;4.606;2022-12-05T08:23:42;68.57;;;26.73;;
43580;SDS011;29175;51.030;4.606;2022-12-05T08:26:10;75.43;;;27.95;;
43580;SDS011;29175;51.030;4.606;2022-12-05T08:28:36;69.78;;;26.40;;
43580;SDS011;29175;51.030;4.606;2022-12-05T08:31:03;80.65;;;27.88;;
43580;SDS011;29175;51.030;4.606;2022-12-05T08:33:36;70.95;;;25.20;;
43580;SDS011;29175;51.030;4.606;2022-12-05T08:36:03;79.63;;;27.38;;
43580;SDS011;29175;51.030;4.606;2022-12-05T08:38:31;68.75;;;26.90;;
43580;SDS011;29175;51.030;4.606;2022-12-05T08:40:59;75.53;;;26.40;;
43580;SDS011;29175;51.030;4.606;2022-12-05T08:43:26;70.68;;;24.75;;
43580;SDS011;29175;51.030;4.606;2022-12-05T08:45:52;70.55;;;25.88;;
43580;SDS011;29175;51.030;4.606;2022-12-05T08:48:18;65.90;;;23.73;;
43580;SDS011;29175;51.030;4.606;2022-12-05T08:50:44;73.57;;;24.08;;
43580;SDS011;29175;51.030;4.606;2022-12-05T08:53:10;68.82;;;26.20;;
43580;SDS011;29175;51.030;4.606;2022-12-05T08:55:36;69.28;;;25.58;;
43580;SDS011;29175;51.030;4.606;2022-12-05T08:58:02;65.05;;;25.70;;
43580;SDS011;29175;51.030;4.606;2022-12-05T09:00:28;61.22;;;24.17;;
43580;SDS011;29175;51.030;4.606;2022-12-05T09:02:54;66.82;;;24.48;;
43580;SDS011;29175;51.030;4.606;2022-12-05T09:05:20;70.30;;;25.33;;
43580;SDS011;29175;51.030;4.606;2022-12-05T09:07:46;68.10;;;24.13;;
43580;SDS011;29175;51.030;4.606;2022-12-05T09:10:12;71.10;;;25.63;;
43580;SDS011;29175;51.030;4.606;2022-12-05T09:12:38;77.55;;;27.73;;
43580;SDS011;29175;51.030;4.606;2022-12-05T09:15:07;67.55;;;24.33;;
43580;SDS011;29175;51.030;4.606;2022-12-05T09:17:34;70.38;;;24.77;;
43580;SDS011;29175;51.030;4.606;2022-12-05T09:20:00;74.80;;;25.25;;
43580;SDS011;29175;51.030;4.606;2022-12-05T09:22:26;65.13;;;24.52;;
43580;SDS011;29175;51.030;4.606;2022-12-05T09:24:52;68.20;;;24.35;;
43580;SDS011;29175;51.030;4.606;2022-12-05T09:27:17;59.92;;;25.02;;
43580;SDS011;29175;51.030;4.606;2022-12-05T09:29:43;68.30;;;25.30;;
43580;SDS011;29175;51.030;4.606;2022-12-05T09:32:09;64.63;;;24.02;;
43580;SDS011;29175;51.030;4.606;2022-12-05T09:34:36;67.82;;;25.58;;
43580;SDS011;29175;51.030;4.606;2022-12-05T09:37:02;58.50;;;24.08;;
43580;SDS011;29175;51.030;4.606;2022-12-05T09:39:29;68.75;;;24.10;;
43580;SDS011;29175;51.030;4.606;2022-12-05T09:52:42;65.72;;;23.88;;
43580;SDS011;29175;51.030;4.606;2022-12-05T09:55:18;62.55;;;23.20;;
43580;SDS011;29175;51.030;4.606;2022-12-05T09:57:47;74.20;;;25.10;;
43580;SDS011;29175;51.030;4.606;2022-12-05T10:00:16;54.75;;;22.15;;
43580;SDS011;29175;51.030;4.606;2022-12-05T10:02:55;59.35;;;22.23;;
43580;SDS011;29175;51.030;4.606;2022-12-05T10:05:44;58.00;;;22.17;;
43580;SDS011;29175;51.030;4.606;2022-12-05T10:08:18;58.25;;;21.92;;
43580;SDS011;29175;51.030;4.606;2022-12-05T10:13:53;65.35;;;22.50;;
43580;SDS011;29175;51.030;4.606;2022-12-05T10:16:48;57.30;;;21.35;;
43580;SDS011;29175;51.030;4.606;2022-12-05T10:19:32;54.85;;;20.75;;
43580;SDS011;29175;51.030;4.606;2022-12-05T10:22:03;62.13;;;21.35;;
43580;SDS011;29175;51.030;4.606;2022-12-05T10:24:37;59.35;;;22.20;;
43580;SDS011;29175;51.030;4.606;2022-12-05T10:28:13;58.40;;;23.00;;
43580;SDS011;29175;51.030;4.606;2022-12-05T10:30:12;57.88;;;22.10;;
43580;SDS011;29175;51.030;4.606;2022-12-05T10:32:53;58.83;;;22.52;;
43580;SDS011;29175;51.030;4.606;2022-12-05T10:35:27;56.78;;;23.58;;
43580;SDS011;29175;51.030;4.606;2022-12-05T10:38:03;56.92;;;20.92;;
43580;SDS011;29175;51.030;4.606;2022-12-05T10:40:34;60.03;;;22.60;;
43580;SDS011;29175;51.030;4.606;2022-12-05T10:43:03;60.03;;;22.35;;
43580;SDS011;29175;51.030;4.606;2022-12-05T10:45:29;58.83;;;21.95;;
43580;SDS011;29175;51.030;4.606;2022-12-05T10:47:56;52.30;;;20.92;;
43580;SDS011;29175;51.030;4.606;2022-12-05T10:52:56;58.17;;;22.77;;
43580;SDS011;29175;51.030;4.606;2022-12-05T10:55:27;56.13;;;21.58;;
43580;SDS011;29175;51.030;4.606;2022-12-05T10:58:15;60.33;;;20.67;;
43580;SDS011;29175;51.030;4.606;2022-12-05T11:00:56;59.10;;;22.23;;
43580;SDS011;29175;51.030;4.606;2022-12-05T11:03:31;60.17;;;21.70;;
43580;SDS011;29175;51.030;4.606;2022-12-05T11:06:13;56.53;;;20.30;;
43580;SDS011;29175;51.030;4.606;2022-12-05T11:08:51;47.92;;;20.05;;
43580;SDS011;29175;51.030;4.606;2022-12-05T11:11:37;50.03;;;18.85;;
43580;SDS011;29175;51.030;4.606;2022-12-05T11:14:06;44.78;;;19.42;;
43580;SDS011;29175;51.030;4.606;2022-12-05T11:16:57;44.50;;;18.23;;
43580;SDS011;29175;51.030;4.606;2022-12-05T11:19:32;46.92;;;19.65;;
43580;SDS011;29175;51.030;4.606;2022-12-05T11:21:59;54.60;;;19.50;;
43580;SDS011;29175;51.030;4.606;2022-12-05T11:27:20;46.35;;;19.67;;
43580;SDS011;29175;51.030;4.606;2022-12-05T11:30:03;52.35;;;20.63;;
43580;SDS011;29175;51.030;4.606;2022-12-05T11:32:36;52.50;;;19.02;;
43580;SDS011;29175;51.030;4.606;2022-12-05T11:35:13;53.88;;;20.75;;
43580;SDS011;29175;51.030;4.606;2022-12-05T11:37:55;50.53;;;18.83;;
43580;SDS011;29175;51.030;4.606;2022-12-05T11:48:40;38.33;;;16.88;;
43580;SDS011;29175;51.030;4.606;2022-12-05T11:51:26;38.60;;;16.88;;
43580;SDS011;29175;51.030;4.606;2022-12-05T11:53:59;36.15;;;16.48;;
43580;SDS011;29175;51.030;4.606;2022-12-05T11:59:28;42.78;;;16.67;;
43580;SDS011;29175;51.030;4.606;2022-12-05T12:10:13;38.42;;;15.25;;
43580;SDS011;29175;51.030;4.606;2022-12-05T12:21:28;37.83;;;15.35;;
43580;SDS011;29175;51.030;4.606;2022-12-05T12:24:07;31.85;;;14.35;;
43580;SDS011;29175;51.030;4.606;2022-12-05T12:33:10;36.28;;;14.80;;
43580;SDS011;29175;51.030;4.606;2022-12-05T12:35:24;34.97;;;16.05;;
43580;SDS011;29175;51.030;4.606;2022-12-05T12:40:50;38.08;;;15.80;;
43580;SDS011;29175;51.030;4.606;2022-12-05T12:51:46;41.95;;;16.77;;
43580;SDS011;29175;51.030;4.606;2022-12-05T12:57:05;38.67;;;17.15;;
43580;SDS011;29175;51.030;4.606;2022-12-05T12:59:55;38.88;;;15.25;;
43580;SDS011;29175;51.030;4.606;2022-12-05T13:02:39;41.45;;;16.13;;
43580;SDS011;29175;51.030;4.606;2022-12-05T13:08:03;42.47;;;16.40;;
43580;SDS011;29175;51.030;4.606;2022-12-05T13:10:45;35.10;;;16.00;;
43580;SDS011;29175;51.030;4.606;2022-12-05T13:13:13;38.75;;;15.98;;
43580;SDS011;29175;51.030;4.606;2022-12-05T13:15:46;35.20;;;16.77;;
43580;SDS011;29175;51.030;4.606;2022-12-05T13:18:19;31.17;;;14.60;;
43580;SDS011;29175;51.030;4.606;2022-12-05T13:20:47;33.05;;;15.50;;
43580;SDS011;29175;51.030;4.606;2022-12-05T13:23:17;39.25;;;15.85;;
43580;SDS011;29175;51.030;4.606;2022-12-05T13:25:46;35.80;;;15.40;;
43580;SDS011;29175;51.030;4.606;2022-12-05T13:30:58;36.40;;;15.85;;
43580;SDS011;29175;51.030;4.606;2022-12-05T13:33:32;38.63;;;15.25;;
43580;SDS011;29175;51.030;4.606;2022-12-05T13:36:04;37.97;;;16.02;;
43580;SDS011;29175;51.030;4.606;2022-12-05T13:38:55;33.13;;;14.30;;
43580;SDS011;29175;51.030;4.606;2022-12-05T13:41:45;33.75;;;14.88;;
43580;SDS011;29175;51.030;4.606;2022-12-05T13:44:37;39.85;;;15.65;;
43580;SDS011;29175;51.030;4.606;2022-12-05T13:47:19;38.95;;;16.17;;
43580;SDS011;29175;51.030;4.606;2022-12-05T13:50:09;35.00;;;15.40;;
43580;SDS011;29175;51.030;4.606;2022-12-05T13:52:49;40.40;;;16.25;;
43580;SDS011;29175;51.030;4.606;2022-12-05T13:57:59;35.45;;;15.32;;
43580;SDS011;29175;51.030;4.606;2022-12-05T14:02:55;34.72;;;14.93;;
43580;SDS011;29175;51.030;4.606;2022-12-05T14:07:56;36.90;;;15.25;;
43580;SDS011;29175;51.030;4.606;2022-12-05T14:12:55;40.17;;;16.60;;
43580;SDS011;29175;51.030;4.606;2022-12-05T14:18:11;37.47;;;16.48;;
43580;SDS011;29175;51.030;4.606;2022-12-05T14:20:48;37.47;;;14.20;;
43580;SDS011;29175;51.030;4.606;2022-12-05T14:26:46;27.00;;;12.43;;
43580;SDS011;29175;51.030;4.606;2022-12-05T14:35:13;28.63;;;12.90;;
43580;SDS011;29175;51.030;4.606;2022-12-05T14:37:42;37.80;;;15.07;;
43580;SDS011;29175;51.030;4.606;2022-12-05T14:40:16;25.80;;;13.23;;
43580;SDS011;29175;51.030;4.606;2022-12-05T14:43:06;30.45;;;12.45;;
43580;SDS011;29175;51.030;4.606;2022-12-05T14:50:48;29.73;;;13.98;;
43580;SDS011;29175;51.030;4.606;2022-12-05T14:56:01;31.98;;;14.07;;
43580;SDS011;29175;51.030;4.606;2022-12-05T15:04:05;27.02;;;13.48;;
43580;SDS011;29175;51.030;4.606;2022-12-05T15:06:46;31.65;;;14.50;;
43580;SDS011;29175;51.030;4.606;2022-12-05T15:12:15;29.48;;;14.07;;
43580;SDS011;29175;51.030;4.606;2022-12-05T15:17:41;35.78;;;15.45;;
43580;SDS011;29175;51.030;4.606;2022-12-05T15:23:33;36.28;;;15.38;;
43580;SDS011;29175;51.030;4.606;2022-12-05T15:26:01;37.65;;;15.88;;
43580;SDS011;29175;51.030;4.606;2022-12-05T15:28:28;43.03;;;17.75;;
43580;SDS011;29175;51.030;4.606;2022-12-05T15:30:54;37.63;;;16.13;;
43580;SDS011;29175;51.030;4.606;2022-12-05T15:33:21;39.13;;;16.58;;
43580;SDS011;29175;51.030;4.606;2022-12-05T15:35:48;42.35;;;16.92;;
43580;SDS011;29175;51.030;4.606;2022-12-05T15:38:19;44.03;;;17.30;;
43580;SDS011;29175;51.030;4.606;2022-12-05T15:40:49;39.97;;;17.55;;
43580;SDS011;29175;51.030;4.606;2022-12-05T15:43:33;46.33;;;17.27;;
43580;SDS011;29175;51.030;4.606;2022-12-05T15:46:21;44.40;;;18.50;;
43580;SDS011;29175;51.030;4.606;2022-12-05T15:48:49;43.78;;;17.73;;
43580;SDS011;29175;51.030;4.606;2022-12-05T15:51:20;45.58;;;18.42;;
43580;SDS011;29175;51.030;4.606;2022-12-05T15:57:27;46.88;;;18.88;;
43580;SDS011;29175;51.030;4.606;2022-12-05T16:02:34;45.70;;;19.55;;
43580;SDS011;29175;51.030;4.606;2022-12-05T16:07:50;44.95;;;18.00;;
43580;SDS011;29175;51.030;4.606;2022-12-05T16:10:17;45.03;;;18.25;;
43580;SDS011;29175;51.030;4.606;2022-12-05T16:12:45;53.05;;;18.92;;
43580;SDS011;29175;51.030;4.606;2022-12-05T16:15:23;47.85;;;18.85;;
43580;SDS011;29175;51.030;4.606;2022-12-05T16:17:53;46.30;;;18.80;;
43580;SDS011;29175;51.030;4.606;2022-12-05T16:20:27;50.03;;;19.50;;
43580;SDS011;29175;51.030;4.606;2022-12-05T16:23:04;44.22;;;19.23;;
43580;SDS011;29175;51.030;4.606;2022-12-05T16:25:46;48.10;;;20.45;;
43580;SDS011;29175;51.030;4.606;2022-12-05T16:28:14;45.00;;;19.63;;
43580;SDS011;29175;51.030;4.606;2022-12-05T16:30:53;49.25;;;20.92;;
43580;SDS011;29175;51.030;4.606;2022-12-05T16:33:24;43.70;;;18.92;;
43580;SDS011;29175;51.030;4.606;2022-12-05T16:35:52;51.42;;;21.50;;
43580;SDS011;29175;51.030;4.606;2022-12-05T16:38:27;46.35;;;19.70;;
43580;SDS011;29175;51.030;4.606;2022-12-05T16:40:57;48.13;;;21.25;;
43580;SDS011;29175;51.030;4.606;2022-12-05T16:46:43;49.88;;;20.05;;
43580;SDS011;29175;51.030;4.606;2022-12-05T16:51:43;60.97;;;25.00;;
43580;SDS011;29175;51.030;4.606;2022-12-05T16:54:10;73.72;;;28.08;;
43580;SDS011;29175;51.030;4.606;2022-12-05T16:56:35;86.47;;;33.05;;
43580;SDS011;29175;51.030;4.606;2022-12-05T16:59:04;73.82;;;30.95;;
43580;SDS011;29175;51.030;4.606;2022-12-05T17:01:30;66.72;;;27.45;;
43580;SDS011;29175;51.030;4.606;2022-12-05T17:03:57;63.15;;;24.55;;
43580;SDS011;29175;51.030;4.606;2022-12-05T17:06:24;64.13;;;25.10;;
43580;SDS011;29175;51.030;4.606;2022-12-05T17:08:50;64.28;;;24.60;;
43580;SDS011;29175;51.030;4.606;2022-12-05T17:11:19;62.85;;;23.63;;
43580;SDS011;29175;51.030;4.606;2022-12-05T17:13:48;68.32;;;24.27;;
43580;SDS011;29175;51.030;4.606;2022-12-05T17:16:15;58.03;;;24.77;;
43580;SDS011;29175;51.030;4.606;2022-12-05T17:18:42;58.55;;;23.83;;
43580;SDS011;29175;51.030;4.606;2022-12-05T17:21:10;63.35;;;25.20;;
43580;SDS011;29175;51.030;4.606;2022-12-05T17:23:40;61.03;;;24.48;;